createdAt,value
2017-11-16T00:01:41.920Z,28.77
2017-11-16T00:04:11.620Z,26.75
2017-11-16T00:06:41.375Z,26.50
2017-11-16T00:09:09.981Z,27.20
2017-11-16T00:11:37.720Z,29.55
2017-11-16T00:14:05.368Z,26.75
2017-11-16T00:16:33.139Z,27.42
2017-11-16T00:19:02.714Z,28.62
2017-11-16T00:21:31.205Z,25.83
2017-11-16T00:24:00.591Z,26.98
2017-11-16T00:26:28.259Z,25.15
2017-11-16T00:28:55.925Z,25.95
2017-11-16T00:31:24.121Z,26.20
2017-11-16T00:33:51.894Z,24.85
2017-11-16T00:36:20.554Z,24.65
2017-11-16T00:38:48.184Z,22.23
2017-11-16T00:41:16.671Z,22.77
2017-11-16T00:43:44.264Z,23.12
2017-11-16T00:46:11.853Z,25.52
2017-11-16T00:48:39.479Z,28.80
2017-11-16T00:51:07.285Z,25.55
2017-11-16T00:53:34.980Z,25.17
2017-11-16T00:56:02.987Z,25.50
2017-11-16T00:58:30.621Z,25.10
2017-11-16T01:00:58.953Z,25.48
2017-11-16T01:03:26.553Z,26.23
2017-11-16T01:05:54.167Z,28.23
2017-11-16T01:08:22.814Z,25.98
2017-11-16T01:10:50.737Z,27.35
2017-11-16T01:13:18.373Z,27.35
2017-11-16T01:15:47.021Z,25.02
2017-11-16T01:18:14.682Z,24.98
2017-11-16T01:20:42.237Z,28.45
2017-11-16T01:23:09.870Z,26.10
2017-11-16T01:25:38.313Z,26.87
2017-11-16T01:28:07.042Z,26.67
2017-11-16T01:30:34.650Z,27.62
2017-11-16T01:33:02.224Z,27.48
2017-11-16T01:35:29.819Z,25.67
2017-11-16T01:37:57.378Z,24.48
2017-11-16T01:40:24.984Z,24.42
2017-11-16T01:42:52.621Z,25.50
2017-11-16T01:45:21.012Z,23.27
2017-11-16T01:47:49.405Z,26.85
2017-11-16T01:50:16.978Z,26.17
2017-11-16T01:52:44.623Z,26.27
2017-11-16T01:55:14.633Z,26.77
2017-11-16T01:57:43.113Z,22.95
2017-11-16T02:00:10.772Z,27.05
2017-11-16T02:02:40.861Z,26.62
2017-11-16T02:05:09.357Z,25.08
2017-11-16T02:07:37.168Z,27.15
2017-11-16T02:10:04.822Z,28.73
2017-11-16T02:12:32.456Z,28.55
2017-11-16T02:15:00.524Z,25.62
2017-11-16T02:17:28.140Z,25.27
2017-11-16T02:19:55.996Z,27.58
2017-11-16T02:22:23.636Z,25.90
2017-11-16T02:24:51.276Z,25.75
2017-11-16T02:27:19.111Z,27.45
2017-11-16T02:29:46.905Z,26.73
2017-11-16T02:32:14.538Z,26.65
2017-11-16T02:34:42.402Z,27.00
2017-11-16T02:37:09.993Z,27.70
2017-11-16T02:39:38.580Z,25.35
2017-11-16T02:42:06.991Z,28.40
2017-11-16T02:44:34.570Z,26.92
2017-11-16T02:47:02.206Z,25.25
2017-11-16T02:49:30.639Z,27.10
2017-11-16T02:51:58.201Z,27.08
2017-11-16T02:54:25.841Z,25.75
2017-11-16T02:56:53.460Z,25.37
2017-11-16T02:59:21.129Z,24.35
2017-11-16T03:01:48.713Z,26.50
2017-11-16T03:04:17.108Z,26.75
2017-11-16T03:06:44.756Z,26.52
2017-11-16T03:09:13.223Z,24.95
2017-11-16T03:11:41.799Z,26.98
2017-11-16T03:14:09.412Z,26.90
2017-11-16T03:16:37.814Z,27.35
2017-11-16T03:19:05.360Z,22.37
2017-11-16T03:21:33.796Z,24.02
2017-11-16T03:24:01.371Z,26.92
2017-11-16T03:26:28.976Z,25.05
2017-11-16T03:28:58.392Z,25.70
2017-11-16T03:31:25.973Z,24.77
2017-11-16T03:33:53.616Z,21.98
2017-11-16T03:36:22.014Z,24.25
2017-11-16T03:38:49.597Z,21.67
2017-11-16T03:41:17.179Z,20.77
2017-11-16T03:43:44.747Z,19.87
2017-11-16T03:46:12.530Z,21.40
2017-11-16T03:48:40.160Z,21.20
2017-11-16T03:51:08.215Z,23.25
2017-11-16T03:53:36.284Z,21.40
2017-11-16T03:56:04.663Z,21.48
2017-11-16T03:58:32.290Z,22.60
2017-11-16T04:00:59.919Z,20.52
2017-11-16T04:03:27.570Z,20.83
2017-11-16T04:05:56.684Z,23.15
2017-11-16T04:08:24.277Z,24.98
2017-11-16T04:10:51.920Z,23.52
2017-11-16T04:13:19.516Z,22.37
2017-11-16T04:15:47.102Z,20.70
2017-11-16T04:18:14.785Z,23.10
2017-11-16T04:20:42.402Z,22.37
2017-11-16T04:23:09.969Z,20.90
2017-11-16T04:25:37.553Z,20.45
2017-11-16T04:28:05.160Z,20.50
2017-11-16T04:30:32.767Z,20.30
2017-11-16T04:33:00.368Z,20.00
2017-11-16T04:35:28.774Z,20.88
2017-11-16T04:37:56.365Z,20.55
2017-11-16T04:40:24.322Z,20.20
2017-11-16T04:42:51.893Z,19.12
2017-11-16T04:45:19.489Z,20.70
2017-11-16T04:47:47.052Z,22.05
2017-11-16T04:50:14.627Z,22.50
2017-11-16T04:52:42.209Z,20.23
2017-11-16T04:55:09.780Z,19.87
2017-11-16T04:57:37.763Z,21.33
2017-11-16T05:00:06.142Z,21.73
2017-11-16T05:02:33.731Z,20.92
2017-11-16T05:05:01.299Z,21.20
2017-11-16T05:07:28.843Z,21.42
2017-11-16T05:09:56.463Z,19.55
2017-11-16T05:12:24.028Z,19.02
2017-11-16T05:14:51.850Z,19.87
2017-11-16T05:17:19.505Z,20.77
2017-11-16T05:19:47.841Z,19.52
2017-11-16T05:22:16.425Z,18.37
2017-11-16T05:24:44.098Z,20.55
2017-11-16T05:27:11.698Z,21.40
2017-11-16T05:29:40.089Z,17.55
2017-11-16T05:32:08.434Z,21.98
2017-11-16T05:34:36.036Z,19.48
2017-11-16T05:37:04.369Z,21.23
2017-11-16T05:39:31.978Z,21.50
2017-11-16T05:41:59.632Z,20.17
2017-11-16T05:44:27.266Z,19.02
2017-11-16T05:46:54.849Z,21.60
2017-11-16T05:49:22.409Z,18.67
2017-11-16T05:51:50.011Z,21.27
2017-11-16T05:54:17.605Z,21.10
2017-11-16T05:56:45.217Z,19.58
2017-11-16T05:59:12.824Z,20.02
2017-11-16T06:01:41.211Z,18.67
2017-11-16T06:04:08.823Z,21.00
2017-11-16T06:06:36.421Z,19.90
2017-11-16T06:09:03.989Z,19.98
2017-11-16T06:11:32.768Z,19.83
2017-11-16T06:14:00.346Z,21.80
2017-11-16T06:16:28.841Z,21.98
2017-11-16T06:18:56.449Z,22.83
2017-11-16T06:21:23.988Z,22.92
2017-11-16T06:23:51.593Z,21.60
2017-11-16T06:26:20.291Z,21.73
2017-11-16T06:28:47.997Z,19.50
2017-11-16T06:31:17.109Z,18.52
2017-11-16T06:33:46.925Z,21.02
2017-11-16T06:36:16.535Z,24.10
2017-11-16T06:38:44.215Z,21.40
2017-11-16T06:44:03.617Z,19.48
2017-11-16T06:46:33.246Z,18.65
2017-11-16T06:49:01.358Z,20.77
2017-11-16T06:51:30.635Z,16.80
2017-11-16T06:54:03.628Z,20.45
2017-11-16T06:56:32.387Z,18.83
2017-11-16T06:59:01.429Z,19.25
2017-11-16T07:01:31.119Z,19.30
2017-11-16T07:03:58.834Z,17.08
2017-11-16T07:06:26.461Z,18.08
2017-11-16T07:08:54.120Z,17.52
2017-11-16T07:11:22.941Z,20.23
2017-11-16T07:13:52.280Z,20.80
2017-11-16T07:16:22.250Z,16.85
2017-11-16T07:18:51.206Z,18.02
2017-11-16T12:09:30.890Z,20.62
2017-11-16T12:42:26.800Z,17.02
2017-11-16T12:57:42.618Z,18.48
2017-11-16T13:14:15.749Z,18.67
2017-11-16T13:20:08.712Z,16.65
2017-11-16T13:22:36.428Z,17.23
2017-11-16T13:27:41.774Z,18.60
2017-11-16T13:30:09.613Z,20.23
2017-11-16T13:32:38.099Z,19.98
2017-11-16T13:35:05.814Z,18.67
2017-11-16T13:37:33.583Z,19.25
2017-11-16T13:40:01.373Z,16.83
2017-11-16T13:42:28.966Z,18.70
2017-11-16T13:45:01.347Z,19.90
2017-11-16T13:47:29.345Z,17.77
2017-11-16T13:49:57.740Z,19.10
2017-11-16T13:52:25.721Z,18.12
2017-11-16T13:54:56.089Z,17.75
2017-11-16T13:59:59.602Z,18.62
2017-11-16T14:02:30.171Z,18.50
2017-11-16T14:07:55.688Z,22.08
2017-11-16T14:16:53.621Z,20.20
2017-11-16T14:19:23.216Z,20.85
2017-11-16T14:24:25.085Z,20.95
2017-11-16T14:26:53.561Z,19.15
2017-11-16T14:29:23.333Z,20.40
2017-11-16T14:31:52.105Z,20.88
2017-11-16T14:34:20.517Z,20.23
2017-11-16T14:36:48.136Z,18.75
2017-11-16T14:39:15.924Z,20.37
2017-11-16T14:41:43.505Z,20.20
2017-11-16T14:44:11.063Z,21.40
2017-11-16T14:46:41.306Z,19.60
2017-11-16T14:49:09.679Z,19.65
2017-11-16T14:51:37.233Z,20.17
2017-11-16T14:54:04.817Z,19.92
2017-11-16T14:56:32.386Z,21.60
2017-11-16T14:58:59.921Z,23.42
2017-11-16T15:01:28.522Z,22.20
2017-11-16T15:03:56.078Z,21.20
2017-11-16T15:06:23.660Z,23.70
2017-11-16T15:08:52.100Z,24.12
2017-11-16T15:11:20.089Z,21.27
2017-11-16T15:13:47.651Z,21.00
2017-11-16T15:16:15.268Z,21.33
2017-11-16T15:18:43.759Z,20.48
2017-11-16T15:21:11.552Z,21.20
2017-11-16T15:23:39.532Z,23.00
2017-11-16T15:26:08.393Z,22.27
2017-11-16T15:28:36.947Z,24.00
2017-11-16T15:31:04.520Z,21.25
2017-11-16T15:33:32.105Z,22.55
2017-11-16T15:35:59.714Z,22.00
2017-11-16T15:38:27.347Z,21.40
2017-11-16T15:40:56.035Z,20.70
2017-11-16T15:43:23.685Z,22.75
2017-11-16T15:45:51.389Z,22.23
2017-11-16T15:48:19.725Z,23.10
2017-11-16T15:50:47.296Z,22.10
2017-11-16T15:53:14.898Z,23.80
2017-11-16T15:55:42.560Z,22.80
2017-11-16T15:58:10.997Z,20.75
2017-11-16T16:00:38.606Z,22.67
2017-11-16T16:03:06.953Z,23.23
2017-11-16T16:05:34.533Z,22.58
2017-11-16T16:08:02.573Z,23.62
2017-11-16T16:10:30.134Z,22.40
2017-11-16T16:12:57.869Z,22.60
2017-11-16T16:15:26.315Z,23.95
2017-11-16T16:17:53.893Z,22.42
2017-11-16T16:20:25.480Z,20.52
2017-11-16T16:22:53.039Z,22.00
2017-11-16T16:25:21.424Z,23.23
2017-11-16T16:27:49.795Z,21.85
2017-11-16T16:30:17.740Z,23.60
2017-11-16T16:32:45.380Z,21.60
2017-11-16T16:35:13.002Z,25.20
2017-11-16T16:37:40.645Z,25.20
2017-11-16T16:40:08.294Z,21.20
2017-11-16T16:42:35.977Z,21.85
2017-11-16T16:45:03.608Z,22.62
2017-11-16T16:47:31.277Z,21.95
2017-11-16T16:49:58.911Z,20.98
2017-11-16T16:52:26.580Z,22.85
2017-11-16T16:54:54.176Z,23.52
2017-11-16T16:57:21.769Z,22.85
2017-11-16T16:59:49.420Z,20.50
2017-11-16T17:02:17.021Z,22.75
2017-11-16T17:04:44.608Z,23.05
2017-11-16T17:07:13.111Z,21.67
2017-11-16T17:09:40.702Z,22.20
2017-11-16T17:12:08.345Z,22.65
2017-11-16T17:14:36.009Z,22.67
2017-11-16T17:17:03.616Z,24.12
2017-11-16T17:19:31.278Z,23.33
2017-11-16T17:21:58.896Z,24.02
2017-11-16T17:24:27.284Z,21.67
2017-11-16T17:26:55.679Z,22.52
2017-11-16T17:29:23.342Z,23.52
2017-11-16T17:31:50.944Z,24.42
2017-11-16T17:34:18.575Z,22.48
2017-11-16T17:36:47.202Z,21.35
2017-11-16T17:39:14.823Z,21.85
2017-11-16T17:41:42.436Z,20.62
2017-11-16T17:44:10.043Z,21.40
2017-11-16T17:46:37.697Z,21.98
2017-11-16T17:49:05.315Z,22.67
2017-11-16T17:51:32.955Z,23.00
2017-11-16T17:54:00.600Z,24.27
2017-11-16T17:56:29.043Z,23.95
2017-11-16T17:58:56.663Z,22.70
2017-11-16T18:01:25.099Z,24.02
2017-11-16T18:03:52.781Z,25.00
2017-11-16T18:06:20.444Z,22.25
2017-11-16T18:08:48.067Z,23.08
2017-11-16T18:11:15.679Z,21.90
2017-11-16T18:13:43.327Z,21.90
2017-11-16T18:16:10.927Z,23.12
2017-11-16T18:18:39.341Z,23.42
2017-11-16T18:21:07.712Z,22.05
2017-11-16T18:23:36.096Z,21.77
2017-11-16T18:26:04.459Z,22.08
2017-11-16T18:28:32.607Z,23.17
2017-11-16T18:31:00.247Z,22.75
2017-11-16T18:33:27.903Z,22.27
2017-11-16T18:35:55.524Z,23.30
2017-11-16T18:38:23.123Z,22.23
2017-11-16T18:40:50.789Z,23.33
2017-11-16T18:43:19.176Z,22.08
2017-11-16T18:45:47.532Z,22.37
2017-11-16T18:48:15.201Z,20.80
2017-11-16T18:50:42.820Z,21.83
2017-11-16T18:53:10.471Z,22.58
2017-11-16T18:55:38.069Z,23.30
2017-11-16T18:58:05.690Z,21.37
2017-11-16T19:00:34.099Z,22.05
2017-11-16T19:03:01.805Z,22.35
2017-11-16T19:05:29.524Z,22.00
2017-11-16T19:07:57.326Z,21.20
2017-11-16T19:10:25.053Z,22.05
2017-11-16T19:12:52.747Z,21.65
2017-11-16T19:15:20.627Z,22.33
2017-11-16T19:17:48.257Z,20.75
2017-11-16T19:20:16.736Z,23.17
2017-11-16T19:22:45.119Z,20.62
2017-11-16T19:25:12.746Z,23.75
2017-11-16T19:27:40.612Z,23.65
2017-11-16T19:30:08.309Z,22.58
2017-11-16T19:32:36.710Z,21.60
2017-11-16T19:35:06.061Z,21.62
2017-11-16T19:37:33.714Z,22.45
2017-11-16T19:40:01.369Z,24.30
2017-11-16T19:42:29.018Z,23.40
2017-11-16T19:44:56.634Z,23.45
2017-11-16T19:47:24.301Z,22.20
2017-11-16T19:49:51.891Z,24.55
2017-11-16T19:52:19.526Z,21.85
2017-11-16T19:54:47.169Z,20.80
2017-11-16T19:57:14.834Z,23.73
2017-11-16T19:59:42.497Z,23.45
2017-11-16T20:02:10.158Z,21.52
2017-11-16T20:04:38.067Z,22.60
2017-11-16T20:07:05.766Z,23.02
2017-11-16T20:09:34.181Z,22.85
2017-11-16T20:12:01.830Z,22.55
2017-11-16T20:14:30.285Z,22.08
2017-11-16T20:16:57.948Z,22.00
2017-11-16T20:19:25.624Z,23.00
2017-11-16T20:21:53.912Z,22.90
2017-11-16T20:24:21.693Z,23.23
2017-11-16T20:26:50.176Z,22.15
2017-11-16T20:29:18.635Z,22.98
2017-11-16T20:31:46.287Z,23.38
2017-11-16T20:34:13.916Z,26.55
2017-11-16T20:36:57.263Z,24.12
2017-11-16T20:39:26.922Z,23.70
2017-11-16T20:41:58.325Z,24.63
2017-11-16T20:44:31.618Z,23.02
2017-11-16T20:47:05.522Z,22.45
2017-11-16T20:49:36.130Z,20.92
2017-11-16T20:52:05.222Z,22.37
2017-11-16T20:54:33.551Z,23.48
2017-11-16T20:57:02.008Z,21.77
2017-11-16T20:59:30.417Z,22.37
2017-11-16T21:01:58.127Z,24.30
2017-11-16T21:04:25.853Z,24.05
2017-11-16T21:06:54.733Z,23.33
2017-11-16T21:12:17.708Z,22.67
2017-11-16T21:14:46.634Z,23.55
2017-11-16T21:17:14.402Z,22.52
2017-11-16T21:19:42.293Z,22.48
2017-11-16T21:22:09.999Z,23.87
2017-11-16T21:24:37.721Z,24.00
2017-11-16T21:27:05.499Z,24.52
2017-11-16T21:29:33.530Z,23.08
2017-11-16T21:32:01.219Z,22.35
2017-11-16T21:34:28.916Z,23.12
2017-11-16T21:36:56.657Z,23.70
2017-11-16T21:39:24.329Z,25.62
2017-11-16T21:41:51.993Z,24.77
2017-11-16T21:44:19.706Z,24.17
2017-11-16T21:46:47.466Z,24.27
2017-11-16T21:49:15.189Z,25.92
2017-11-16T21:51:43.976Z,23.87
2017-11-16T21:54:11.776Z,23.15
2017-11-16T21:56:39.696Z,25.42
2017-11-16T21:59:07.474Z,24.85
2017-11-16T22:01:35.186Z,24.25
2017-11-16T22:04:02.909Z,23.80
2017-11-16T22:06:30.651Z,25.83
2017-11-16T22:08:59.164Z,26.10
2017-11-16T22:11:26.883Z,25.67
2017-11-16T22:13:54.658Z,26.20
2017-11-16T22:16:22.691Z,24.80
2017-11-16T22:18:50.432Z,26.60
2017-11-16T22:21:18.937Z,24.75
2017-11-16T22:23:46.665Z,25.77
2017-11-16T22:26:15.169Z,25.85
2017-11-16T22:28:43.025Z,26.20
2017-11-16T22:31:10.717Z,25.62
2017-11-16T22:33:38.438Z,26.83
2017-11-16T22:36:06.946Z,25.05
2017-11-16T22:38:35.215Z,28.65
2017-11-16T22:41:02.883Z,26.92
2017-11-16T22:43:31.497Z,25.12
2017-11-16T22:45:59.241Z,25.85
2017-11-16T22:48:26.942Z,26.25
2017-11-16T22:50:54.610Z,27.52
2017-11-16T22:53:22.261Z,28.52
2017-11-16T22:55:50.728Z,25.48
2017-11-16T22:58:19.411Z,27.35
2017-11-16T23:00:47.159Z,25.85
2017-11-16T23:03:14.894Z,26.05
2017-11-16T23:05:43.008Z,28.15
2017-11-16T23:08:10.670Z,25.98
2017-11-16T23:10:39.134Z,28.30
2017-11-16T23:13:06.838Z,28.10
2017-11-16T23:15:34.540Z,26.02
2017-11-16T23:18:03.044Z,26.98
2017-11-16T23:20:30.718Z,26.40
2017-11-16T23:22:58.417Z,28.75
2017-11-16T23:25:26.110Z,25.90
2017-11-16T23:27:53.852Z,26.62
2017-11-16T23:30:21.542Z,26.40
2017-11-16T23:32:49.285Z,27.42
2017-11-16T23:35:17.079Z,26.25
2017-11-16T23:37:44.856Z,27.27
2017-11-16T23:40:12.545Z,23.70
2017-11-16T23:42:41.119Z,28.58
2017-11-16T23:45:08.882Z,27.50
2017-11-16T23:47:37.558Z,26.58
2017-11-16T23:50:05.972Z,26.70
2017-11-16T23:52:34.792Z,27.15
2017-11-16T23:55:02.439Z,27.95
2017-11-16T23:57:30.865Z,25.70
2017-11-16T23:59:58.526Z,30.70
